Time;durP1;ratioP1;P1;durP2;ratioP2;P2;SDS_P1;SDS_P2;PMS_P1;PMS_P2;Temp;Humidity;BMP_temperature;BMP_pressure;BME280_temperature;BME280_humidity;BME280_pressure;Samples;Min_cycle;Max_cycle;Signal;HPM_P1;HPM_P2
2023/02/28 00:01:30;;;;;;;8.75;3.38;;;1.20;95.10;;;;;;5089846;28;20024;-56
2023/02/28 00:03:56;;;;;;;7.25;3.55;;;1.20;94.40;;;;;;5067754;28;20027;-56
2023/02/28 00:06:22;;;;;;;6.95;2.72;;;1.20;94.30;;;;;;5062138;28;20067;-55
2023/02/28 00:08:48;;;;;;;7.80;4.07;;;1.20;93.10;;;;;;5086716;28;20063;-55
2023/02/28 00:11:15;;;;;;;9.85;3.20;;;1.20;93.10;;;;;;5057904;28;20039;-56
2023/02/28 00:13:46;;;;;;;4.68;2.78;;;1.20;92.20;;;;;;5087913;28;20114;-55
2023/02/28 00:16:14;;;;;;;5.70;3.20;;;1.20;92.10;;;;;;5061022;28;20041;-56
2023/02/28 00:18:41;;;;;;;5.95;3.17;;;1.20;92.40;;;;;;5089075;28;20036;-56
2023/02/28 00:21:07;;;;;;;5.82;2.55;;;1.20;92.10;;;;;;5054470;28;20032;-54
2023/02/28 00:23:33;;;;;;;8.77;3.08;;;1.20;91.90;;;;;;5087390;28;20412;-57
2023/02/28 00:25:58;;;;;;;6.80;3.83;;;1.20;92.50;;;;;;5055046;28;20036;-55
2023/02/28 00:28:24;;;;;;;8.18;3.30;;;1.20;92.50;;;;;;5067701;28;20090;-54
2023/02/28 00:30:50;;;;;;;8.38;3.15;;;1.20;93.30;;;;;;5086084;28;20043;-55
2023/02/28 00:33:15;;;;;;;5.32;2.97;;;1.20;92.30;;;;;;5068946;28;20043;-55
2023/02/28 00:35:41;;;;;;;5.22;2.60;;;1.10;92.80;;;;;;5085477;28;20024;-54
2023/02/28 00:38:07;;;;;;;8.32;2.90;;;1.20;92.90;;;;;;5069056;28;20025;-54
2023/02/28 00:40:32;;;;;;;8.10;3.97;;;1.10;92.70;;;;;;5085776;28;20035;-54
2023/02/28 00:42:58;;;;;;;7.28;3.17;;;1.10;94.50;;;;;;5067814;28;20028;-52
2023/02/28 00:45:23;;;;;;;6.57;3.50;;;1.10;95.40;;;;;;5086017;28;20086;-54
2023/02/28 00:47:49;;;;;;;5.28;2.70;;;1.10;94.80;;;;;;5088466;28;20255;-55
2023/02/28 00:50:17;;;;;;;6.80;3.30;;;1.10;93.80;;;;;;5065792;28;20028;-54
2023/02/28 00:52:43;;;;;;;6.93;3.25;;;1.00;94.80;;;;;;5068101;28;20111;-67
2023/02/28 00:55:09;;;;;;;8.55;4.47;;;1.00;96.00;;;;;;5085892;28;20111;-66
2023/02/28 00:57:34;;;;;;;9.10;3.22;;;1.00;94.50;;;;;;5087404;28;20126;-69
2023/02/28 01:00:00;;;;;;;6.50;2.60;;;0.90;94.60;;;;;;5066623;28;20036;-69
2023/02/28 01:02:25;;;;;;;7.32;2.88;;;0.90;96.20;;;;;;5068098;28;20455;-69
2023/02/28 01:04:51;;;;;;;7.20;2.97;;;0.80;95.30;;;;;;5072794;28;20028;-67
2023/02/28 01:07:16;;;;;;;7.15;3.30;;;0.80;94.30;;;;;;5049131;28;20123;-67
2023/02/28 01:09:42;;;;;;;8.13;2.90;;;0.70;95.20;;;;;;5066140;28;20047;-67
2023/02/28 01:12:08;;;;;;;5.80;2.30;;;0.70;94.70;;;;;;5066384;28;20028;-67
2023/02/28 01:14:35;;;;;;;9.93;3.25;;;0.60;95.90;;;;;;5067279;28;20054;-66
2023/02/28 01:17:00;;;;;;;6.82;3.25;;;0.60;95.50;;;;;;5085272;28;20024;-67
2023/02/28 01:19:26;;;;;;;7.68;4.10;;;0.50;95.80;;;;;;5088424;28;20251;-66
2023/02/28 01:21:52;;;;;;;7.53;3.40;;;0.50;98.10;;;;;;5066018;28;20047;-67
2023/02/28 01:24:17;;;;;;;5.97;2.88;;;0.40;97.50;;;;;;5067367;28;20028;-67
2023/02/28 01:26:43;;;;;;;6.70;3.38;;;0.30;96.90;;;;;;5085691;28;20614;-65
2023/02/28 01:29:08;;;;;;;8.77;3.72;;;0.20;98.60;;;;;;5088134;28;20155;-67
2023/02/28 01:31:34;;;;;;;8.77;3.83;;;0.10;99.90;;;;;;5066128;28;20061;-67
2023/02/28 01:34:00;;;;;;;9.27;3.78;;;0.10;99.90;;;;;;5068137;28;20088;-67
2023/02/28 01:36:26;;;;;;;9.38;3.58;;;0.00;99.90;;;;;;5087307;28;20085;-66
2023/02/28 01:38:53;;;;;;;7.85;3.80;;;-0.10;99.90;;;;;;5047196;28;20060;-66
2023/02/28 01:41:31;;;;;;;8.07;3.20;;;-0.20;99.80;;;;;;5067314;28;20367;-66
2023/02/28 01:44:07;;;;;;;6.85;3.47;;;-0.30;98.00;;;;;;5064664;28;20051;-66
2023/02/28 01:46:35;;;;;;;7.68;3.70;;;-0.40;98.50;;;;;;5047719;28;20241;-66
2023/02/28 01:49:13;;;;;;;11.55;3.33;;;-0.50;99.90;;;;;;5047694;28;20061;-67
2023/02/28 01:51:50;;;;;;;6.57;3.30;;;-0.50;98.80;;;;;;5047331;28;20037;-66
2023/02/28 01:54:20;;;;;;;9.13;3.40;;;-0.60;99.90;;;;;;5088289;28;20025;-66
2023/02/28 01:56:57;;;;;;;7.45;2.85;;;-0.70;99.90;;;;;;5049540;28;20036;-66
2023/02/28 01:59:30;;;;;;;9.65;3.35;;;-0.80;99.90;;;;;;5087582;28;20224;-66
2023/02/28 02:01:55;;;;;;;10.18;3.50;;;-0.90;99.80;;;;;;5051620;28;20044;-66
2023/02/28 02:04:26;;;;;;;6.90;3.80;;;-1.00;99.20;;;;;;5089772;28;20092;-58
2023/02/28 02:06:52;;;;;;;5.80;3.05;;;-1.10;99.90;;;;;;5066881;28;20032;-60
2023/02/28 02:09:17;;;;;;;6.55;3.38;;;-1.20;99.90;;;;;;5070952;28;20055;-60
2023/02/28 02:11:46;;;;;;;9.13;4.05;;;-1.30;99.90;;;;;;5087383;28;20749;-62
2023/02/28 02:14:37;;;;;;;6.57;3.30;;;-1.30;99.90;;;;;;5091921;28;20032;-58
2023/02/28 02:17:18;;;;;;;7.40;3.85;;;-1.40;99.90;;;;;;5055033;28;20036;-57
2023/02/28 02:20:12;;;;;;;9.13;3.80;;;-1.50;99.90;;;;;;5091252;28;20096;-58
2023/02/28 02:23:20;;;;;;;8.88;3.83;;;-1.50;99.90;;;;;;5066894;28;20032;-58
2023/02/28 02:26:00;;;;;;;5.45;3.08;;;-1.60;99.90;;;;;;5051025;28;20063;-58
2023/02/28 02:28:47;;;;;;;11.27;3.80;;;-1.60;99.90;;;;;;5065106;28;20024;-57
2023/02/28 02:31:25;;;;;;;6.05;3.20;;;-1.70;99.90;;;;;;5051106;28;20021;-58
2023/02/28 02:34:27;;;;;;;7.18;3.47;;;-1.80;99.90;;;;;;5068412;28;20424;-56
2023/02/28 02:37:15;;;;;;;9.07;3.60;;;-1.80;99.90;;;;;;5054192;28;20037;-57
2023/02/28 02:40:14;;;;;;;8.32;3.13;;;-1.90;99.90;;;;;;5088828;28;20024;-58
2023/02/28 02:42:51;;;;;;;7.25;3.40;;;-1.90;99.90;;;;;;5089112;28;20020;-56
2023/02/28 02:45:25;;;;;;;9.15;3.33;;;-2.00;99.90;;;;;;5089396;28;20028;-58
2023/02/28 02:47:51;;;;;;;7.68;3.33;;;-2.10;99.90;;;;;;5054617;28;20043;-57
2023/02/28 02:50:26;;;;;;;7.43;3.92;;;-2.10;99.90;;;;;;5091090;28;20099;-56
2023/02/28 02:52:56;;;;;;;7.60;3.17;;;-2.20;99.90;;;;;;5055082;28;20235;-57
2023/02/28 02:55:23;;;;;;;7.70;3.50;;;-2.20;99.90;;;;;;5090915;28;20024;-55
2023/02/28 02:57:55;;;;;;;10.85;3.70;;;-2.20;99.90;;;;;;5069175;28;20029;-58
2023/02/28 03:00:26;;;;;;;9.25;3.60;;;-2.30;99.90;;;;;;5069493;28;20035;-59
2023/02/28 03:02:55;;;;;;;5.43;3.20;;;-2.30;99.90;;;;;;5054991;28;20036;-57
2023/02/28 03:05:26;;;;;;;11.05;4.18;;;-2.30;99.90;;;;;;5078749;28;20020;-56
2023/02/28 03:07:51;;;;;;;8.65;4.03;;;-2.30;99.90;;;;;;5059897;28;20072;-58
2023/02/28 03:10:30;;;;;;;11.38;3.92;;;-2.40;99.90;;;;;;5070384;28;20056;-57
2023/02/28 03:13:23;;;;;;;7.70;3.75;;;-2.40;99.90;;;;;;5080907;28;20028;-58
2023/02/28 03:16:02;;;;;;;9.98;3.97;;;-2.40;99.90;;;;;;5036954;28;20074;-58
2023/02/28 03:18:50;;;;;;;11.48;4.38;;;-2.50;99.90;;;;;;5068090;28;20041;-57
2023/02/28 03:21:43;;;;;;;8.90;4.10;;;-2.50;99.90;;;;;;5050311;28;20045;-58
2023/02/28 03:24:27;;;;;;;9.10;3.72;;;-2.60;99.90;;;;;;5062166;28;20060;-58
2023/02/28 03:27:01;;;;;;;5.18;3.30;;;-2.60;99.90;;;;;;5049844;28;20033;-57
2023/02/28 03:29:54;;;;;;;10.18;3.85;;;-2.60;99.90;;;;;;5064360;28;20497;-56
2023/02/28 03:32:36;;;;;;;11.38;4.57;;;-2.70;99.90;;;;;;5046504;28;20081;-58
2023/02/28 03:35:22;;;;;;;8.57;4.13;;;-2.70;99.90;;;;;;5089958;28;20043;-58
2023/02/28 03:37:52;;;;;;;5.18;3.15;;;-2.80;99.90;;;;;;5053219;28;20048;-58
2023/02/28 03:40:21;;;;;;;8.30;4.60;;;-2.80;99.90;;;;;;5090077;28;20111;-58
2023/02/28 03:42:53;;;;;;;9.95;3.53;;;-2.80;99.90;;;;;;5066583;28;20093;-58
2023/02/28 03:45:26;;;;;;;7.43;3.05;;;-2.90;99.90;;;;;;5069693;28;20025;-56
2023/02/28 03:47:58;;;;;;;10.18;4.63;;;-2.90;99.90;;;;;;5086470;28;20133;-58
2023/02/28 03:50:45;;;;;;;8.32;3.65;;;-2.90;99.90;;;;;;5088567;28;20488;-58
2023/02/28 03:53:17;;;;;;;5.80;3.28;;;-3.00;99.90;;;;;;5058755;28;20058;-57
2023/02/28 03:55:47;;;;;;;5.40;2.95;;;-3.00;99.90;;;;;;5089373;28;20035;-58
2023/02/28 03:58:33;;;;;;;8.90;4.28;;;-3.00;99.90;;;;;;5059231;28;20020;-58
2023/02/28 04:01:09;;;;;;;11.15;4.15;;;-3.00;99.90;;;;;;5089526;28;20480;-58
2023/02/28 04:03:36;;;;;;;;;;;-3.10;99.90;;;;;;5064334;28;20583;-58
2023/02/28 04:06:02;;;;;;;12.80;4.30;;;-3.10;99.90;;;;;;5064150;28;19927;-56
2023/02/28 04:08:27;;;;;;;10.60;4.25;;;-3.10;99.90;;;;;;5086584;28;20051;-57
2023/02/28 04:11:08;;;;;;;20.60;6.72;;;-3.10;99.90;;;;;;5069322;28;20025;-58
2023/02/28 04:13:33;;;;;;;15.15;6.07;;;-3.20;99.90;;;;;;5065317;28;20024;-59
2023/02/28 04:15:59;;;;;;;14.43;5.65;;;-3.20;99.90;;;;;;5069328;28;20488;-58
2023/02/28 04:18:24;;;;;;;14.73;6.47;;;-3.20;99.90;;;;;;5086172;28;20024;-58
2023/02/28 04:20:50;;;;;;;10.60;4.88;;;-3.20;99.90;;;;;;5069736;28;20496;-57
2023/02/28 04:23:15;;;;;;;14.52;5.47;;;-3.20;99.90;;;;;;5084899;28;20105;-58
2023/02/28 04:25:41;;;;;;;13.45;4.95;;;-3.20;99.90;;;;;;5088907;28;20102;-57
2023/02/28 04:28:07;;;;;;;12.52;5.22;;;-3.30;99.90;;;;;;5050695;28;20047;-58
2023/02/28 04:30:32;;;;;;;10.13;4.53;;;-3.30;99.90;;;;;;5067883;28;20048;-58
2023/02/28 04:32:58;;;;;;;12.63;4.63;;;-3.30;99.90;;;;;;5070881;28;20248;-57
2023/02/28 04:35:24;;;;;;;10.77;5.05;;;-3.40;99.90;;;;;;5088466;28;20032;-57
2023/02/28 04:37:49;;;;;;;10.93;4.28;;;-3.40;99.90;;;;;;5053141;28;20448;-56
2023/02/28 04:40:15;;;;;;;11.65;4.57;;;-3.40;99.90;;;;;;5067722;28;20393;-58
2023/02/28 04:42:40;;;;;;;9.18;3.92;;;-3.40;99.90;;;;;;5073333;28;20512;-58
2023/02/28 04:45:06;;;;;;;11.77;4.85;;;-3.50;99.90;;;;;;5088087;28;20093;-57
2023/02/28 04:47:32;;;;;;;9.30;4.45;;;-3.50;99.90;;;;;;5055195;28;20134;-57
2023/02/28 04:49:57;;;;;;;7.05;3.47;;;-3.50;99.90;;;;;;5068066;28;20055;-58
2023/02/28 04:52:23;;;;;;;9.77;4.43;;;-3.50;99.90;;;;;;5085871;28;20031;-58
2023/02/28 04:54:49;;;;;;;8.90;4.15;;;-3.60;99.90;;;;;;5068794;28;20082;-59
2023/02/28 04:57:14;;;;;;;13.20;5.50;;;-3.60;99.90;;;;;;5086185;28;20035;-57
2023/02/28 04:59:40;;;;;;;28.83;11.10;;;-3.60;99.90;;;;;;5068749;28;20044;-58
2023/02/28 05:02:06;;;;;;;29.25;13.07;;;-3.60;99.90;;;;;;5085803;28;20618;-58
2023/02/28 05:04:35;;;;;;;21.17;10.20;;;-3.60;99.90;;;;;;5065316;28;20028;-56
2023/02/28 05:07:02;;;;;;;20.10;10.73;;;-3.60;99.90;;;;;;5065638;28;20522;-59
2023/02/28 05:09:28;;;;;;;12.75;7.75;;;-3.70;99.90;;;;;;5070713;28;20036;-57
2023/02/28 05:11:54;;;;;;;18.75;7.65;;;-3.70;99.90;;;;;;5087407;28;20161;-57
2023/02/28 05:14:20;;;;;;;10.98;5.97;;;-3.70;99.90;;;;;;5052503;28;20104;-58
2023/02/28 05:16:45;;;;;;;13.38;6.45;;;-3.70;99.90;;;;;;5067272;28;20056;-57
2023/02/28 05:19:11;;;;;;;14.57;7.32;;;-3.80;99.90;;;;;;5072279;28;20086;-58
2023/02/28 05:21:39;;;;;;;9.38;4.80;;;-3.80;99.90;;;;;;5087663;28;20499;-57
2023/02/28 05:24:07;;;;;;;13.68;6.72;;;-3.80;99.90;;;;;;5053549;28;20032;-58
2023/02/28 05:26:38;;;;;;;9.40;5.38;;;-3.80;99.90;;;;;;5067503;28;20566;-59
2023/02/28 05:29:04;;;;;;;11.25;7.28;;;-3.90;99.90;;;;;;5073255;28;20024;-57
2023/02/28 05:31:30;;;;;;;13.68;7.55;;;-3.90;99.90;;;;;;5087467;28;20032;-57
2023/02/28 05:33:56;;;;;;;10.90;6.20;;;-3.90;99.90;;;;;;5055339;28;20029;-58
2023/02/28 05:36:22;;;;;;;13.68;6.68;;;-3.90;99.90;;;;;;5066816;28;20020;-57
2023/02/28 05:38:48;;;;;;;8.98;4.70;;;-3.90;99.90;;;;;;5086538;28;20038;-57
2023/02/28 05:41:14;;;;;;;10.77;5.15;;;-3.90;99.90;;;;;;5072551;28;20051;-58
2023/02/28 05:43:40;;;;;;;8.63;4.30;;;-3.90;99.90;;;;;;5088209;28;20032;-58
2023/02/28 05:46:07;;;;;;;11.98;5.70;;;-3.90;99.90;;;;;;5080667;28;20612;-57
2023/02/28 05:48:36;;;;;;;10.25;5.53;;;-4.00;99.90;;;;;;5070570;28;20041;-58
2023/02/28 05:51:03;;;;;;;10.48;5.07;;;-4.00;99.90;;;;;;5072126;28;20106;-58
2023/02/28 05:53:29;;;;;;;12.55;5.50;;;-4.00;99.90;;;;;;5090971;28;20446;-58
2023/02/28 05:55:55;;;;;;;12.20;5.65;;;-4.00;99.90;;;;;;5055266;28;20229;-56
2023/02/28 05:58:21;;;;;;;9.73;4.93;;;-4.00;99.90;;;;;;5070856;28;20515;-57
2023/02/28 06:00:47;;;;;;;10.88;5.35;;;-4.00;99.90;;;;;;5075188;28;20036;-59
2023/02/28 06:03:12;;;;;;;9.18;4.93;;;-4.00;99.90;;;;;;5091182;28;20403;-58
2023/02/28 06:05:38;;;;;;;11.77;4.15;;;-4.00;99.90;;;;;;5074872;28;20128;-58
2023/02/28 06:08:06;;;;;;;8.73;3.80;;;-4.00;99.90;;;;;;5080670;28;20099;-58
2023/02/28 06:10:32;;;;;;;8.30;3.55;;;-3.90;99.90;;;;;;5057677;28;20025;-57
2023/02/28 06:13:02;;;;;;;10.25;4.50;;;-3.90;99.90;;;;;;5070855;28;20039;-57
2023/02/28 06:15:28;;;;;;;8.85;4.47;;;-3.90;99.90;;;;;;5089613;28;20040;-72
2023/02/28 06:17:53;;;;;;;5.50;3.63;;;-3.80;99.90;;;;;;5071571;28;20040;-72
2023/02/28 06:20:19;;;;;;;8.13;4.28;;;-3.80;99.90;;;;;;5088495;28;20507;-71
2023/02/28 06:22:44;;;;;;;9.18;4.82;;;-3.80;99.90;;;;;;5070523;28;20029;-72
2023/02/28 06:25:10;;;;;;;6.90;3.28;;;-3.80;99.90;;;;;;5088528;28;20031;-72
2023/02/28 06:27:36;;;;;;;10.40;4.40;;;-3.80;99.90;;;;;;5071465;28;20032;-72
2023/02/28 06:30:01;;;;;;;7.13;3.58;;;-3.70;99.90;;;;;;5088789;28;20031;-72
2023/02/28 06:32:27;;;;;;;7.70;3.28;;;-3.70;99.90;;;;;;5071110;28;20190;-72
2023/02/28 06:34:52;;;;;;;8.27;4.10;;;-3.60;99.90;;;;;;5088281;28;20581;-72
2023/02/28 06:37:19;;;;;;;8.30;3.85;;;-3.40;99.90;;;;;;5091433;28;20035;-72
2023/02/28 06:39:44;;;;;;;7.68;4.43;;;-3.00;99.90;;;;;;5069293;28;20041;-72
2023/02/28 06:42:10;;;;;;;11.85;4.70;;;-2.50;99.90;;;;;;5070758;28;20025;-72
2023/02/28 06:44:35;;;;;;;7.53;4.28;;;-1.80;99.90;;;;;;5088316;28;20024;-72
2023/02/28 06:47:03;;;;;;;8.70;3.88;;;-1.00;99.90;;;;;;5090937;28;20070;-73
2023/02/28 06:49:30;;;;;;;7.22;3.67;;;-0.10;99.90;;;;;;5068563;28;20090;-72
2023/02/28 06:51:56;;;;;;;7.70;3.80;;;0.60;99.90;;;;;;5070906;28;20048;-72
2023/02/28 06:54:21;;;;;;;8.75;3.72;;;1.30;99.90;;;;;;5088177;28;20059;-70
2023/02/28 06:56:47;;;;;;;7.07;3.78;;;1.90;94.80;;;;;;5090880;28;20024;-54
2023/02/28 06:59:13;;;;;;;12.05;5.95;;;2.50;90.70;;;;;;5069079;28;20488;-58
2023/02/28 07:01:39;;;;;;;12.07;6.18;;;2.90;87.20;;;;;;5070564;28;20091;-60
2023/02/28 07:04:05;;;;;;;8.65;5.00;;;3.30;84.00;;;;;;5088523;28;20368;-61
2023/02/28 07:06:31;;;;;;;12.77;6.10;;;3.60;82.30;;;;;;5087416;28;20436;-61
2023/02/28 07:08:56;;;;;;;9.63;5.07;;;3.80;81.20;;;;;;5070830;28;20055;-61
2023/02/28 07:11:27;;;;;;;9.25;5.32;;;3.90;79.00;;;;;;5068828;28;20037;-61
2023/02/28 07:13:53;;;;;;;6.80;4.72;;;4.20;78.30;;;;;;5050035;28;20025;-61
2023/02/28 07:16:19;;;;;;;10.73;4.90;;;4.40;75.70;;;;;;5068886;28;20103;-62
2023/02/28 07:18:45;;;;;;;11.38;5.28;;;4.60;73.30;;;;;;5089938;28;20575;-62
2023/02/28 07:21:11;;;;;;;9.45;5.22;;;4.70;64.90;;;;;;5051542;28;20126;-62
2023/02/28 07:23:38;;;;;;;9.23;5.32;;;4.90;74.60;;;;;;5069313;28;20024;-62
2023/02/28 07:26:11;;;;;;;9.77;5.38;;;5.10;77.50;;;;;;5071658;28;20037;-62
2023/02/28 07:28:36;;;;;;;8.40;5.05;;;5.30;76.50;;;;;;5050197;28;20036;-62
2023/02/28 07:31:06;;;;;;;10.52;5.43;;;5.40;76.10;;;;;;5070697;28;20172;-62
2023/02/28 07:33:31;;;;;;;7.95;4.75;;;5.40;79.20;;;;;;5089163;28;20441;-63
2023/02/28 07:36:05;;;;;;;10.27;5.78;;;5.30;78.60;;;;;;5053285;28;20104;-62
2023/02/28 07:38:33;;;;;;;8.90;5.20;;;5.30;69.30;;;;;;5049510;28;20040;-63
2023/02/28 07:40:58;;;;;;;9.63;5.68;;;5.30;76.20;;;;;;5072096;28;20028;-63
2023/02/28 07:43:23;;;;;;;10.02;5.88;;;5.40;73.70;;;;;;5088835;28;20032;-62
2023/02/28 07:45:49;;;;;;;12.40;5.75;;;5.50;73.60;;;;;;5053973;28;20029;-63
2023/02/28 07:48:14;;;;;;;9.18;5.72;;;5.70;72.10;;;;;;5067741;28;20514;-62
2023/02/28 07:50:40;;;;;;;15.18;6.75;;;5.80;77.00;;;;;;5072528;28;20029;-62
2023/02/28 07:53:05;;;;;;;12.77;6.25;;;5.90;58.90;;;;;;5088632;28;20131;-62
2023/02/28 07:55:31;;;;;;;11.20;6.07;;;5.70;56.00;;;;;;5056498;28;20392;-62
2023/02/28 07:57:57;;;;;;;12.25;7.07;;;5.80;60.10;;;;;;5068426;28;20115;-63
2023/02/28 08:00:23;;;;;;;9.02;5.63;;;5.80;64.40;;;;;;5086697;28;20039;-62
2023/02/28 08:02:49;;;;;;;9.25;6.22;;;6.00;70.70;;;;;;5067735;28;20033;-63
2023/02/28 08:05:14;;;;;;;10.15;6.25;;;6.10;56.30;;;;;;5083588;28;20028;-63
2023/02/28 08:07:40;;;;;;;10.23;6.40;;;6.10;62.30;;;;;;5074941;28;20044;-62
2023/02/28 08:10:06;;;;;;;12.65;6.57;;;6.20;56.40;;;;;;5087803;28;20024;-62
2023/02/28 08:12:32;;;;;;;10.52;5.18;;;6.20;60.50;;;;;;5069307;28;20056;-63
2023/02/28 08:14:57;;;;;;;9.57;6.13;;;6.40;68.10;;;;;;5086299;28;20487;-63
2023/02/28 08:17:23;;;;;;;13.13;6.65;;;6.50;64.80;;;;;;5089329;28;20099;-63
2023/02/28 08:19:49;;;;;;;16.35;7.75;;;6.60;63.10;;;;;;5067356;28;20042;-62
2023/02/28 08:22:14;;;;;;;14.13;7.40;;;6.60;51.30;;;;;;5068642;28;20056;-62
2023/02/28 08:24:42;;;;;;;15.75;7.82;;;6.40;40.00;;;;;;5085271;28;20506;-63
2023/02/28 08:27:08;;;;;;;10.13;6.55;;;6.20;37.70;;;;;;5088117;28;20103;-63
2023/02/28 08:29:33;;;;;;;12.13;6.82;;;6.20;48.90;;;;;;5067134;28;20111;-62
2023/02/28 08:31:59;;;;;;;12.35;6.30;;;6.30;45.60;;;;;;5068789;28;20024;-62
2023/02/28 08:34:24;;;;;;;12.85;6.90;;;6.20;41.70;;;;;;5086055;28;20073;-62
2023/02/28 08:36:50;;;;;;;10.50;7.10;;;6.10;36.20;;;;;;5088824;28;20027;-62
2023/02/28 08:39:15;;;;;;;11.90;6.78;;;6.20;48.60;;;;;;5067154;28;20432;-62
2023/02/28 08:41:43;;;;;;;13.57;7.38;;;6.30;36.70;;;;;;5068538;28;20115;-62
2023/02/28 08:44:09;;;;;;;12.50;6.63;;;6.20;39.00;;;;;;5086423;28;20029;-63
2023/02/28 08:46:34;;;;;;;10.77;6.13;;;6.40;46.80;;;;;;5088884;28;20027;-62
2023/02/28 08:49:01;;;;;;;12.43;6.28;;;6.50;46.40;;;;;;5069055;28;20036;-63
2023/02/28 08:51:28;;;;;;;11.10;5.63;;;6.60;40.90;;;;;;5066398;28;20040;-63
2023/02/28 08:53:56;;;;;;;10.25;5.70;;;6.80;45.90;;;;;;5087898;28;20024;-63
2023/02/28 08:56:21;;;;;;;10.75;5.88;;;7.20;44.10;;;;;;5048214;28;20029;-63
2023/02/28 08:58:49;;;;;;;8.48;5.43;;;7.20;31.80;;;;;;5067697;28;20036;-63
2023/02/28 09:01:28;;;;;;;11.20;5.88;;;7.00;24.50;;;;;;5068268;28;20025;-62
2023/02/28 09:03:55;;;;;;;9.50;5.70;;;7.00;26.80;;;;;;5088139;28;20024;-63
2023/02/28 09:06:24;;;;;;;7.55;4.65;;;7.30;33.30;;;;;;5044932;28;20104;-63
2023/02/28 09:08:50;;;;;;;7.32;4.22;;;7.70;30.00;;;;;;5067529;28;20056;-63
2023/02/28 09:11:16;;;;;;;7.35;4.22;;;8.00;28.80;;;;;;5067826;28;20154;-62
2023/02/28 09:13:42;;;;;;;6.35;3.90;;;8.20;20.10;;;;;;5088068;28;20107;-62
2023/02/28 09:16:12;;;;;;;6.10;3.67;;;8.20;21.10;;;;;;5049760;28;20044;-62
2023/02/28 09:18:38;;;;;;;5.43;3.10;;;8.40;19.70;;;;;;5067658;28;20032;-63
2023/02/28 09:21:08;;;;;;;4.15;2.90;;;8.20;10.60;;;;;;5069658;28;20027;-63
2023/02/28 09:23:34;;;;;;;6.03;2.60;;;7.70;9.30;;;;;;5088131;28;20035;-63
2023/02/28 09:26:00;;;;;;;4.70;2.85;;;7.70;14.10;;;;;;5050994;28;20033;-62
2023/02/28 09:28:25;;;;;;;5.53;3.33;;;7.70;14.50;;;;;;5086637;28;20085;-63
2023/02/28 09:30:53;;;;;;;4.10;2.70;;;7.60;13.80;;;;;;5052442;28;20031;-62
2023/02/28 09:33:20;;;;;;;3.17;1.80;;;7.70;12.30;;;;;;5067637;28;20074;-63
2023/02/28 09:35:47;;;;;;;2.88;2.10;;;7.80;12.00;;;;;;5071769;28;20113;-62
2023/02/28 09:38:13;;;;;;;2.85;2.13;;;7.80;11.60;;;;;;5087447;28;20424;-62
2023/02/28 09:40:48;;;;;;;5.22;2.50;;;7.60;11.30;;;;;;5053900;28;20043;-62
2023/02/28 09:43:17;;;;;;;4.60;2.70;;;7.50;9.40;;;;;;5047988;28;20025;-62
2023/02/28 09:45:48;;;;;;;5.65;2.58;;;7.40;9.60;;;;;;5072354;28;20085;-62
2023/02/28 09:48:23;;;;;;;3.75;2.35;;;7.40;12.00;;;;;;5048170;28;20041;-61
2023/02/28 09:50:53;;;;;;;4.28;2.38;;;7.50;10.20;;;;;;5060290;28;20027;-62
2023/02/28 09:53:33;;;;;;;4.95;2.70;;;7.20;11.90;;;;;;5047971;28;20033;-62
2023/02/28 09:56:01;;;;;;;4.75;2.83;;;7.10;10.50;;;;;;5061480;28;20028;-62
2023/02/28 09:58:39;;;;;;;5.18;2.88;;;7.00;13.00;;;;;;5087428;28;20675;-62
2023/02/28 10:01:24;;;;;;;4.45;2.97;;;7.10;10.90;;;;;;5062111;28;20116;-62
2023/02/28 10:04:16;;;;;;;4.75;2.47;;;7.20;10.90;;;;;;5047736;28;20165;-62
2023/02/28 10:07:05;;;;;;;4.35;2.28;;;7.30;11.20;;;;;;5045102;28;20629;-62
2023/02/28 10:09:32;;;;;;;5.10;2.63;;;7.20;11.50;;;;;;5069336;28;20493;-62
2023/02/28 10:12:04;;;;;;;5.10;2.67;;;6.90;11.40;;;;;;5070019;28;20020;-62
2023/02/28 10:14:33;;;;;;;4.25;2.13;;;6.80;9.90;;;;;;5052375;28;20048;-60
2023/02/28 10:17:08;;;;;;;4.03;1.85;;;6.70;10.70;;;;;;5087587;28;20099;-60
2023/02/28 10:20:11;;;;;;;4.13;2.25;;;6.70;11.70;;;;;;5053425;28;20130;-60
2023/02/28 10:23:12;;;;;;;4.63;1.70;;;6.70;10.40;;;;;;5047374;28;20405;-59
2023/02/28 10:25:39;;;;;;;3.63;1.38;;;6.60;10.90;;;;;;5073741;28;20461;-60
2023/02/28 10:28:07;;;;;;;3.75;1.33;;;6.40;10.10;;;;;;5071437;28;20029;-60
2023/02/28 10:30:33;;;;;;;3.75;1.98;;;6.10;10.60;;;;;;5074747;28;20590;-60
2023/02/28 10:32:58;;;;;;;3.60;2.30;;;5.90;11.90;;;;;;5090743;28;20273;-60
2023/02/28 10:35:25;;;;;;;4.70;2.00;;;5.90;11.90;;;;;;5069704;28;20103;-59
2023/02/28 10:37:55;;;;;;;3.55;1.70;;;5.60;12.00;;;;;;5089229;28;20028;-60
2023/02/28 10:40:20;;;;;;;4.28;2.35;;;5.50;11.80;;;;;;5068644;28;20040;-58
2023/02/28 10:43:00;;;;;;;3.05;1.80;;;5.50;12.40;;;;;;5090857;28;20024;-60
2023/02/28 10:45:31;;;;;;;2.20;1.52;;;5.40;12.90;;;;;;5078577;28;20077;-60
2023/02/28 10:48:24;;;;;;;10.38;2.60;;;5.50;12.60;;;;;;5050690;28;20458;-59
2023/02/28 10:50:51;;;;;;;4.60;1.70;;;5.40;13.10;;;;;;5062993;28;20033;-59
2023/02/28 10:53:23;;;;;;;3.55;2.13;;;5.40;13.30;;;;;;5090064;28;20091;-59
2023/02/28 10:56:03;;;;;;;4.70;2.20;;;5.30;14.00;;;;;;5054925;28;20103;-60
2023/02/28 10:58:32;;;;;;;19.50;11.15;;;5.20;14.10;;;;;;5069821;28;20438;-59
2023/02/28 11:00:59;;;;;;;5.43;3.38;;;5.20;14.10;;;;;;5072728;28;20101;-60
2023/02/28 11:03:33;;;;;;;5.43;2.47;;;5.00;13.50;;;;;;5089979;28;20083;-60
2023/02/28 11:06:06;;;;;;;2.90;1.83;;;5.00;14.20;;;;;;5046504;28;20032;-59
2023/02/28 11:08:32;;;;;;;6.50;2.33;;;5.00;13.90;;;;;;5069958;28;20053;-60
2023/02/28 11:11:01;;;;;;;5.53;3.17;;;4.90;14.10;;;;;;5072539;28;20262;-60
2023/02/28 11:13:34;;;;;;;4.20;2.70;;;4.90;15.20;;;;;;5090496;28;20463;-59
2023/02/28 11:16:05;;;;;;;4.45;2.50;;;5.00;15.30;;;;;;5067365;28;20437;-60
2023/02/28 11:18:40;;;;;;;5.53;2.50;;;5.00;14.60;;;;;;5050272;28;20033;-58
2023/02/28 11:21:07;;;;;;;5.30;2.85;;;4.90;13.80;;;;;;5068422;28;20028;-59
2023/02/28 11:23:35;;;;;;;3.95;2.30;;;4.80;14.60;;;;;;5089752;28;20040;-59
2023/02/28 11:26:04;;;;;;;5.97;2.40;;;4.90;15.40;;;;;;5052333;28;20025;-59
2023/02/28 11:28:38;;;;;;;4.47;2.90;;;5.00;15.20;;;;;;5068080;28;20032;-59
2023/02/28 11:31:16;;;;;;;5.05;2.75;;;4.80;13.70;;;;;;5064333;28;20101;-59
2023/02/28 11:33:51;;;;;;;5.72;3.13;;;4.80;14.80;;;;;;5050174;28;20425;-60
2023/02/28 11:36:26;;;;;;;4.75;2.47;;;4.70;15.40;;;;;;5067122;28;20400;-60
2023/02/28 11:38:54;;;;;;;5.53;2.35;;;4.70;15.60;;;;;;5048306;28;20169;-60
2023/02/28 11:41:37;;;;;;;5.07;3.05;;;4.70;15.50;;;;;;5067684;28;20074;-60
2023/02/28 11:44:25;;;;;;;4.82;2.67;;;4.80;16.30;;;;;;5049635;28;20113;-60
2023/02/28 11:46:55;;;;;;;5.15;2.25;;;4.70;15.60;;;;;;5049478;28;20033;-60
2023/02/28 11:49:37;;;;;;;3.60;2.10;;;4.70;15.90;;;;;;5052028;28;20037;-59
2023/02/28 11:52:33;;;;;;;4.53;1.98;;;4.80;16.50;;;;;;5089970;28;20035;-59
2023/02/28 11:55:23;;;;;;;5.43;2.28;;;4.80;15.80;;;;;;5062558;28;20031;-60
2023/02/28 11:58:13;;;;;;;5.57;3.35;;;4.90;16.80;;;;;;5049663;28;20044;-60
2023/02/28 12:01:05;;;;;;;5.07;2.58;;;4.90;16.60;;;;;;5072024;28;20584;-60
2023/02/28 12:03:44;;;;;;;6.18;2.85;;;4.80;18.00;;;;;;5049739;28;20032;-60
2023/02/28 12:06:17;;;;;;;6.40;3.05;;;4.80;17.20;;;;;;5059252;28;20044;-60
2023/02/28 12:09:11;;;;;;;4.95;2.70;;;4.80;17.60;;;;;;5064251;28;20053;-60
2023/02/28 12:11:48;;;;;;;5.72;3.17;;;4.60;17.30;;;;;;5047716;28;20033;-60
2023/02/28 12:14:35;;;;;;;6.93;3.53;;;4.70;18.70;;;;;;5049531;28;20053;-59
2023/02/28 12:17:15;;;;;;;6.65;3.90;;;4.70;18.70;;;;;;5089290;28;20031;-59
2023/02/28 12:19:58;;;;;;;7.88;3.53;;;4.60;18.10;;;;;;5056941;28;20561;-61
2023/02/28 12:22:59;;;;;;;6.63;3.58;;;4.60;18.30;;;;;;5089106;28;20056;-61
2023/02/28 12:25:43;;;;;;;5.50;2.90;;;4.60;19.00;;;;;;5068696;28;20149;-59
2023/02/28 12:28:15;;;;;;;5.40;2.95;;;4.70;18.80;;;;;;5050258;28;20391;-60
2023/02/28 12:30:52;;;;;;;5.50;2.47;;;4.80;19.40;;;;;;5088609;28;20057;-60
2023/02/28 12:33:24;;;;;;;5.18;3.05;;;4.70;18.20;;;;;;5049954;28;20077;-60
2023/02/28 12:35:55;;;;;;;4.05;2.35;;;4.70;17.70;;;;;;5068977;28;20021;-60
2023/02/28 12:38:43;;;;;;;5.00;2.53;;;4.70;18.10;;;;;;5052246;28;20020;-59
2023/02/28 12:41:44;;;;;;;4.20;2.65;;;4.70;17.60;;;;;;5079747;28;20281;-59
2023/02/28 12:44:16;;;;;;;4.18;2.70;;;4.70;17.80;;;;;;5056765;28;20120;-60
2023/02/28 12:46:46;;;;;;;5.20;2.63;;;4.70;18.00;;;;;;5064091;28;20430;-61
2023/02/28 12:49:25;;;;;;;4.07;2.63;;;4.70;18.10;;;;;;5067000;28;20058;-60
2023/02/28 12:51:52;;;;;;;3.38;2.08;;;4.80;17.70;;;;;;5048823;28;20044;-59
2023/02/28 12:54:35;;;;;;;5.82;2.83;;;4.90;18.40;;;;;;5085831;28;20030;-59
2023/02/28 12:57:00;;;;;;;6.72;2.88;;;4.90;18.10;;;;;;5049036;28;20492;-60
2023/02/28 12:59:38;;;;;;;4.45;2.30;;;4.80;17.20;;;;;;5085608;28;20077;-59
2023/02/28 13:02:23;;;;;;;4.75;2.38;;;4.80;18.20;;;;;;5048996;28;20104;-60
2023/02/28 13:05:19;;;;;;;5.80;3.08;;;4.80;18.60;;;;;;5057790;28;20016;-66
2023/02/28 13:08:16;;;;;;;5.30;2.67;;;4.90;18.20;;;;;;5086844;28;20040;-69
2023/02/28 13:10:49;;;;;;;5.43;3.22;;;4.80;17.40;;;;;;5047522;28;20058;-68